createdAt,value
2022-08-05T00:01:28.478Z,2.42
2022-08-05T00:06:29.344Z,3.05
2022-08-05T00:11:34.835Z,2.97
2022-08-05T00:16:52.448Z,2.80
2022-08-05T00:21:50.185Z,2.90
2022-08-05T00:26:50.984Z,2.35
2022-08-05T00:32:11.091Z,3.08
2022-08-05T00:37:12.927Z,3.70
2022-08-05T00:42:32.054Z,2.60
2022-08-05T00:47:53.059Z,2.75
2022-08-05T00:52:46.821Z,2.47
2022-08-05T00:57:58.146Z,2.30
2022-08-05T01:02:56.922Z,3.17
2022-08-05T01:08:31.622Z,2.97
2022-08-05T01:13:27.090Z,2.95
2022-08-05T01:18:29.681Z,1.70
2022-08-05T01:23:54.556Z,2.35
2022-08-05T01:29:04.327Z,2.80
2022-08-05T01:34:12.305Z,2.72
2022-08-05T01:39:13.233Z,2.55
2022-08-05T01:44:11.418Z,3.03
2022-08-05T01:49:23.268Z,2.53
2022-08-05T01:54:25.553Z,2.65
2022-08-05T01:59:26.552Z,2.22
2022-08-05T02:04:26.475Z,2.10
2022-08-05T02:09:22.891Z,2.22
2022-08-05T02:14:39.494Z,1.90
2022-08-05T02:19:49.032Z,2.47
2022-08-05T02:24:51.334Z,2.58
2022-08-05T02:29:59.542Z,2.22
2022-08-05T02:35:02.020Z,2.55
2022-08-05T02:40:10.585Z,2.78
2022-08-05T02:45:09.946Z,2.80
2022-08-05T02:50:08.719Z,2.80
2022-08-05T02:55:10.829Z,2.40
2022-08-05T03:00:12.439Z,3.10
2022-08-05T03:05:11.684Z,3.65
2022-08-05T03:10:09.439Z,4.72
2022-08-05T03:15:09.162Z,5.70
2022-08-05T03:20:06.695Z,6.07
2022-08-05T03:25:32.401Z,7.38
2022-08-05T03:30:20.818Z,8.23
2022-08-05T03:35:28.550Z,9.38
2022-08-05T03:40:32.012Z,8.48
2022-08-05T03:45:29.688Z,8.23
2022-08-05T03:52:37.667Z,8.23
2022-08-05T03:56:42.003Z,9.23
2022-08-05T04:01:42.363Z,11.88
2022-08-05T04:06:48.015Z,11.13
2022-08-05T04:11:50.725Z,10.57
2022-08-05T04:16:49.097Z,11.20
2022-08-05T04:22:08.236Z,10.52
2022-08-05T04:27:01.905Z,10.40
2022-08-05T04:31:58.918Z,10.63
2022-08-05T04:36:57.070Z,12.77
2022-08-05T04:41:53.401Z,13.30
2022-08-05T04:46:51.746Z,12.23
2022-08-05T04:51:49.291Z,12.48
2022-08-05T04:56:59.720Z,10.43
2022-08-05T05:02:07.693Z,13.05
2022-08-05T05:07:17.283Z,13.50
2022-08-05T05:12:13.690Z,14.55
2022-08-05T05:17:11.537Z,13.55
2022-08-05T05:22:24.258Z,14.85
2022-08-05T05:27:22.521Z,16.48
2022-08-05T05:32:19.338Z,15.00
2022-08-05T05:37:17.660Z,16.73
2022-08-05T05:42:14.293Z,14.93
2022-08-05T05:47:13.244Z,15.77
2022-08-05T05:52:28.647Z,15.90
2022-08-05T05:57:42.750Z,18.05
2022-08-05T06:02:46.189Z,17.02
2022-08-05T06:07:43.203Z,15.93
2022-08-05T06:12:57.638Z,16.63
2022-08-05T06:17:54.432Z,17.40
2022-08-05T06:22:51.278Z,17.70
2022-08-05T06:28:12.821Z,16.60
2022-08-05T06:33:04.024Z,16.52
2022-08-05T06:38:04.305Z,18.13
2022-08-05T06:43:07.683Z,15.63
2022-08-05T06:48:52.907Z,16.02
2022-08-05T06:53:40.404Z,13.90
2022-08-05T06:58:36.942Z,13.85
2022-08-05T07:03:34.140Z,12.95
2022-08-05T07:08:30.730Z,11.93
2022-08-05T07:13:57.628Z,11.15
2022-08-05T07:18:54.993Z,11.32
2022-08-05T07:23:52.364Z,10.52
2022-08-05T07:28:50.812Z,10.68
2022-08-05T07:33:47.177Z,10.10
2022-08-05T07:38:44.826Z,8.90
2022-08-05T07:43:41.190Z,8.43
2022-08-05T07:49:01.587Z,9.30
2022-08-05T07:53:55.778Z,10.32
2022-08-05T07:58:57.488Z,11.57
2022-08-05T08:03:55.719Z,11.20
2022-08-05T08:08:53.295Z,11.90
2022-08-05T08:14:00.978Z,10.70
2022-08-05T08:18:57.683Z,9.80
2022-08-05T08:24:02.216Z,10.40
2022-08-05T08:29:22.238Z,10.07
2022-08-05T08:34:18.521Z,8.98
2022-08-05T08:39:18.006Z,9.32
2022-08-05T08:45:23.124Z,9.70
2022-08-05T08:50:07.601Z,11.40
2022-08-05T08:54:56.606Z,12.98
2022-08-05T08:59:56.113Z,11.52
2022-08-05T09:05:16.359Z,8.32
2022-08-05T09:10:09.341Z,8.50
2022-08-05T09:15:06.821Z,8.25
2022-08-05T09:20:05.706Z,8.77
2022-08-05T09:25:14.048Z,6.40
2022-08-05T09:30:23.566Z,5.70
2022-08-05T09:35:26.632Z,5.93
2022-08-05T09:40:36.326Z,5.70
2022-08-05T09:46:07.831Z,7.75
2022-08-05T09:50:58.828Z,8.25
2022-08-05T09:56:04.536Z,7.57
2022-08-05T10:01:14.879Z,7.93
2022-08-05T10:06:14.652Z,9.00
2022-08-05T10:11:16.816Z,7.25
2022-08-05T10:16:37.852Z,8.00
2022-08-05T10:21:40.250Z,7.03
2022-08-05T10:26:49.002Z,6.22
2022-08-05T10:33:01.486Z,5.78
2022-08-05T10:37:04.378Z,5.85
2022-08-05T10:42:22.760Z,6.32
2022-08-05T10:47:33.004Z,4.65
2022-08-05T10:52:59.886Z,3.97
2022-08-05T10:58:11.359Z,3.93
2022-08-05T11:03:25.563Z,4.03
2022-08-05T11:08:38.134Z,3.35
2022-08-05T11:13:55.096Z,2.75
2022-08-05T11:20:15.713Z,3.40
2022-08-05T11:24:50.678Z,3.10
2022-08-05T11:30:00.711Z,3.30
2022-08-05T11:34:57.660Z,3.05
2022-08-05T11:40:00.711Z,3.05
2022-08-05T11:45:05.873Z,3.20
2022-08-05T11:50:20.020Z,3.05
2022-08-05T11:55:16.392Z,3.25
2022-08-05T12:00:38.351Z,3.15
2022-08-05T12:05:39.625Z,2.83
2022-08-05T12:10:46.119Z,4.05
2022-08-05T12:15:50.163Z,3.22
2022-08-05T12:20:46.892Z,2.50
2022-08-05T12:25:53.471Z,2.58
2022-08-05T12:30:49.896Z,2.22
2022-08-05T12:35:46.383Z,2.30
2022-08-05T12:40:44.565Z,2.20
2022-08-05T12:45:54.122Z,2.75
2022-08-05T12:52:10.672Z,2.05
2022-08-05T12:56:35.055Z,2.15
2022-08-05T13:02:01.886Z,2.00
2022-08-05T13:06:51.702Z,2.97
2022-08-05T13:12:02.683Z,2.25
2022-08-05T13:16:59.933Z,1.95
2022-08-05T13:21:56.725Z,2.10
2022-08-05T13:26:53.279Z,1.92
2022-08-05T13:32:03.979Z,3.22
2022-08-05T13:37:01.517Z,1.67
2022-08-05T13:41:57.876Z,1.30
2022-08-05T13:47:04.687Z,1.20
2022-08-05T13:52:19.532Z,1.73
2022-08-05T13:57:26.076Z,1.38
2022-08-05T14:02:42.169Z,1.70
2022-08-05T14:08:01.041Z,2.15
2022-08-05T14:12:57.557Z,1.42
2022-08-05T14:17:57.749Z,1.55
2022-08-05T14:22:57.914Z,2.05
2022-08-05T14:27:54.500Z,1.52
2022-08-05T14:32:51.263Z,1.45
2022-08-05T14:37:52.104Z,1.60
2022-08-05T14:42:50.432Z,1.70
2022-08-05T14:48:02.496Z,1.50
2022-08-05T14:53:01.849Z,1.95
2022-08-05T14:57:58.552Z,1.50
2022-08-05T15:02:55.220Z,1.80
2022-08-05T15:08:10.880Z,1.87
2022-08-05T15:13:08.349Z,1.75
2022-08-05T15:18:06.727Z,1.50
2022-08-05T15:23:11.107Z,1.73
2022-08-05T15:28:09.041Z,1.90
2022-08-05T15:33:11.670Z,1.75
2022-08-05T15:38:34.708Z,1.88
2022-08-05T15:43:24.669Z,1.27
2022-08-05T15:48:21.034Z,1.25
2022-08-05T15:53:17.516Z,1.23
2022-08-05T15:58:17.633Z,1.40
2022-08-05T16:03:13.973Z,1.00
2022-08-05T16:08:11.370Z,1.08
2022-08-05T16:13:12.531Z,1.15
2022-08-05T16:18:15.728Z,0.60
2022-08-05T16:23:14.012Z,0.80
2022-08-05T16:28:11.714Z,0.38
2022-08-05T16:33:08.113Z,0.40
2022-08-05T16:38:18.860Z,0.50
2022-08-05T16:43:23.480Z,0.30
2022-08-05T16:48:25.591Z,0.28
2022-08-05T16:53:32.257Z,0.45
2022-08-05T16:58:46.031Z,0.30
2022-08-05T17:03:42.438Z,0.30
2022-08-05T17:08:53.927Z,0.40
2022-08-05T17:13:51.157Z,0.60
2022-08-05T17:18:56.786Z,0.40
2022-08-05T17:24:05.809Z,0.20
2022-08-05T17:29:10.052Z,0.30
2022-08-05T17:34:06.675Z,0.45
2022-08-05T17:39:05.198Z,0.28
2022-08-05T17:44:32.324Z,0.22
2022-08-05T17:49:28.947Z,0.30
2022-08-05T17:54:45.272Z,0.25
2022-08-05T17:59:41.688Z,0.50
2022-08-05T18:10:02.093Z,0.30
2022-08-05T18:15:06.965Z,0.40
2022-08-05T18:20:06.425Z,0.50
2022-08-05T18:25:11.645Z,0.38
2022-08-05T18:30:13.649Z,0.47
2022-08-05T18:35:11.542Z,0.30
2022-08-05T18:41:53.154Z,0.40
2022-08-05T18:45:40.896Z,0.93
2022-08-05T18:50:56.981Z,0.30
2022-08-05T18:55:58.203Z,0.40
2022-08-05T19:06:12.843Z,0.30
2022-08-05T19:11:09.599Z,0.50
2022-08-05T19:16:22.234Z,0.50
2022-08-05T19:21:26.156Z,0.50
2022-08-05T19:26:25.783Z,0.40
2022-08-05T19:31:22.962Z,0.20
2022-08-05T19:36:19.531Z,0.47
2022-08-05T19:41:16.232Z,0.40
2022-08-05T19:46:29.460Z,0.35
2022-08-05T19:51:56.602Z,0.50
2022-08-05T19:56:43.996Z,0.60
2022-08-05T20:01:40.435Z,0.80
2022-08-05T20:06:45.959Z,0.60
2022-08-05T20:11:48.217Z,0.40
2022-08-05T20:16:45.092Z,0.60
2022-08-05T20:21:41.471Z,0.50
2022-08-05T20:26:39.876Z,0.40
2022-08-05T20:31:52.148Z,0.60
2022-08-05T20:36:48.786Z,0.60
2022-08-05T20:41:49.162Z,0.80
2022-08-05T20:46:45.524Z,0.95
2022-08-05T20:51:42.560Z,0.90
2022-08-05T20:56:42.151Z,0.70
2022-08-05T21:01:39.207Z,0.93
2022-08-05T21:06:36.439Z,0.80
2022-08-05T21:12:10.553Z,0.90
2022-08-05T21:16:49.276Z,1.15
2022-08-05T21:21:50.655Z,0.75
2022-08-05T21:26:58.419Z,1.63
2022-08-05T21:31:55.499Z,0.70
2022-08-05T21:36:52.148Z,0.70
2022-08-05T21:41:52.619Z,0.88
2022-08-05T21:46:49.369Z,0.90
2022-08-05T21:52:27.113Z,0.82
2022-08-05T21:57:29.587Z,1.10
2022-08-05T22:02:21.098Z,0.95
2022-08-05T22:07:17.484Z,0.98
2022-08-05T22:12:34.469Z,0.98
2022-08-05T22:17:40.592Z,1.10
2022-08-05T22:23:17.072Z,1.35
2022-08-05T22:28:18.283Z,0.90
2022-08-05T22:33:15.657Z,1.10
2022-08-05T22:38:12.676Z,1.08
2022-08-05T22:43:09.136Z,1.05
2022-08-05T22:48:05.719Z,0.90
2022-08-05T22:53:04.244Z,0.70
2022-08-05T22:58:06.287Z,1.10
2022-08-05T23:03:08.056Z,0.88
2022-08-05T23:08:09.796Z,1.10
2022-08-05T23:13:07.833Z,0.90
2022-08-05T23:18:06.151Z,1.20
2022-08-05T23:23:09.024Z,1.00
2022-08-05T23:28:07.565Z,1.10
2022-08-05T23:33:04.131Z,2.45
2022-08-05T23:38:00.506Z,1.00
2022-08-05T23:42:56.829Z,1.30
2022-08-05T23:47:53.901Z,1.17
2022-08-05T23:52:55.912Z,1.40
2022-08-05T23:57:52.783Z,1.30
